Richfield, Wisconsin
Current Conditions -  °F | °C
As of 1:35 AM on Sunday 23 Nov 2014 (Local Time) from KETB Reporting Station
Overcast Overcast  
Wind Chill: 50°   Ceiling: 1300
Heat Index: 50°   Visibility: 10mi
Dew Point: 45°   Wind: 9mph
Humidity: 82%   Direction: 210°SSW
Pressure: 29.73"   Gusts: NA
Location:  43.26°N, 88.19°W
Report Text: KETB 230735Z AUTO 21008KT 10SM BKN013 OVC021 10/07 A2973 RMK AO2
Loading
Personal Weather Stations






























Interactive Weather Map New forecast layout! Learn more

10-Day Weather Forecast

Advertisements
Track Severe Weather on mobile